Terminal Aerodrome Forecast
Issued by NWS

Home | Current Version | Previous Version | Text Only | Print | Product List | Glossary On
Versions: 1 2 3 4 5 6 7 8 9 10 11 12 13 14 15 16 17 18 19 20 21 22
000
FTUS43 KIND 271400 AAA
TAFLAF
TAF AMD
KLAF 271404Z 2714/2812 22010KT P6SM VCSH BKN020
      TEMPO 2715/2717 SCT020 OVC100
     FM271700 24010G18KT P6SM VCTS BKN040CB
     FM272000 27010G18KT P6SM BKN100
     FM280100 31005KT P6SM SKC=

USA.gov is the U.S. government's official web portal to all federal, state and local government web resources and services.